Time;durP1;ratioP1;P1;durP2;ratioP2;P2;SDS_P1;SDS_P2;PMS_P1;PMS_P2;Temp;Humidity;BMP_temperature;BMP_pressure;BME280_temperature;BME280_humidity;BME280_pressure;Samples;Min_cycle;Max_cycle;Signal;HPM_P1;HPM_P2
2022/10/14 00:01:54;;;;;;;12.90;6.95;;;13.80;99.90;;;;;;5036018;28;20032;-73
2022/10/14 00:04:20;;;;;;;17.77;7.15;;;13.80;99.90;;;;;;5017920;28;20030;-73
2022/10/14 00:06:45;;;;;;;12.80;7.45;;;13.80;99.90;;;;;;5018465;28;20029;-73
2022/10/14 00:09:11;;;;;;;16.40;6.78;;;13.70;99.90;;;;;;5035445;28;20029;-73
2022/10/14 00:11:36;;;;;;;16.60;7.30;;;13.70;99.90;;;;;;5018146;28;20033;-72
2022/10/14 00:14:09;;;;;;;13.82;6.60;;;13.60;99.90;;;;;;5017706;28;20020;-72
2022/10/14 00:16:37;;;;;;;13.80;7.28;;;13.60;99.90;;;;;;5035512;28;20100;-72
2022/10/14 00:19:03;;;;;;;12.80;6.53;;;13.60;99.90;;;;;;5017642;28;20059;-73
2022/10/14 00:21:30;;;;;;;13.93;6.72;;;13.60;99.90;;;;;;5035440;28;20104;-72
2022/10/14 00:23:56;;;;;;;13.32;6.88;;;13.50;99.90;;;;;;5018428;28;20025;-72
2022/10/14 00:26:33;;;;;;;10.90;6.68;;;13.50;99.90;;;;;;5017518;28;20497;-73
2022/10/14 00:29:00;;;;;;;12.02;7.00;;;13.50;99.90;;;;;;5017413;28;20029;-72
2022/10/14 00:31:26;;;;;;;18.65;8.93;;;13.40;99.90;;;;;;5017263;28;20083;-73
2022/10/14 00:33:52;;;;;;;13.18;7.13;;;13.40;99.90;;;;;;5035577;28;20476;-72
2022/10/14 00:36:19;;;;;;;16.98;8.18;;;13.40;99.90;;;;;;5017310;28;20032;-72
2022/10/14 00:38:45;;;;;;;17.13;8.18;;;13.40;99.90;;;;;;5017493;28;20031;-72
2022/10/14 00:41:20;;;;;;;13.55;7.57;;;13.30;99.90;;;;;;5017229;28;20025;-71
2022/10/14 00:44:05;;;;;;;16.20;7.47;;;13.30;99.90;;;;;;5017707;28;20108;-71
2022/10/14 00:46:42;;;;;;;13.63;7.53;;;13.30;99.90;;;;;;5017329;28;20036;-71
2022/10/14 00:49:13;;;;;;;14.25;7.95;;;13.30;99.90;;;;;;5017073;28;20033;-71
2022/10/14 00:51:41;;;;;;;12.80;7.03;;;13.20;99.90;;;;;;5017557;28;20044;-71
2022/10/14 00:54:08;;;;;;;16.08;8.13;;;13.20;99.90;;;;;;5017229;28;20021;-71
2022/10/14 00:56:35;;;;;;;14.32;8.27;;;13.20;99.90;;;;;;5035000;28;20045;-71
2022/10/14 00:59:03;;;;;;;13.90;7.25;;;13.20;99.90;;;;;;5016855;28;20022;-71
2022/10/14 01:01:28;;;;;;;10.18;6.97;;;13.30;99.90;;;;;;5016548;28;20030;-71
2022/10/14 01:03:54;;;;;;;16.23;7.60;;;13.30;99.90;;;;;;5016669;28;20080;-73
2022/10/14 01:06:32;;;;;;;18.92;7.97;;;13.30;99.90;;;;;;5016779;28;20025;-72
2022/10/14 01:09:08;;;;;;;14.95;7.07;;;13.30;99.90;;;;;;5034625;28;20075;-72
2022/10/14 01:11:46;;;;;;;12.55;7.50;;;13.40;99.90;;;;;;5017538;28;20128;-72
2022/10/14 01:14:22;;;;;;;14.23;6.90;;;13.50;99.90;;;;;;5016714;28;20022;-72
2022/10/14 01:17:09;;;;;;;13.95;6.85;;;13.50;99.90;;;;;;5034319;28;20026;-72
2022/10/14 01:20:07;;;;;;;21.85;7.85;;;13.60;99.90;;;;;;5016513;28;20021;-72
2022/10/14 01:22:57;;;;;;;14.63;6.93;;;13.60;99.90;;;;;;5016420;28;20033;-72
2022/10/14 01:25:33;;;;;;;13.32;6.80;;;13.60;99.90;;;;;;5034174;28;20079;-72
2022/10/14 01:28:11;;;;;;;17.38;6.75;;;13.60;99.90;;;;;;5016331;28;20039;-72
2022/10/14 01:30:47;;;;;;;18.30;6.70;;;13.60;99.90;;;;;;5016291;28;20025;-72
2022/10/14 01:33:20;;;;;;;14.45;7.03;;;13.50;99.90;;;;;;5017128;28;20060;-72
2022/10/14 01:36:03;;;;;;;13.80;7.25;;;13.50;99.90;;;;;;5016910;28;20029;-72
2022/10/14 01:38:50;;;;;;;10.77;7.47;;;13.50;99.90;;;;;;5016933;28;20140;-72
2022/10/14 01:41:23;;;;;;;15.50;7.85;;;13.50;99.90;;;;;;5016181;28;20029;-72
2022/10/14 01:43:51;;;;;;;12.23;6.60;;;13.40;99.90;;;;;;5033884;28;20112;-72
2022/10/14 01:46:20;;;;;;;17.85;7.30;;;13.40;99.90;;;;;;5033900;28;20083;-72
2022/10/14 01:48:52;;;;;;;13.77;7.45;;;13.30;99.90;;;;;;5016190;28;20384;-72
2022/10/14 01:51:25;;;;;;;13.95;7.45;;;13.30;99.90;;;;;;5033631;28;20061;-73
2022/10/14 01:54:10;;;;;;;10.88;6.63;;;13.30;99.90;;;;;;5015966;28;20025;-72
2022/10/14 01:56:36;;;;;;;11.75;7.00;;;13.40;99.90;;;;;;5016631;28;20424;-72
2022/10/14 01:59:03;;;;;;;10.70;6.35;;;13.40;99.90;;;;;;5015798;28;20071;-72
2022/10/14 02:01:28;;;;;;;12.35;6.50;;;13.50;99.90;;;;;;5016057;28;20029;-73
2022/10/14 02:03:54;;;;;;;11.88;7.35;;;13.50;99.90;;;;;;5034068;28;20022;-72
2022/10/14 02:06:34;;;;;;;16.20;6.40;;;13.60;99.90;;;;;;5015796;28;20056;-73
2022/10/14 02:09:31;;;;;;;15.25;7.05;;;13.60;99.90;;;;;;5015724;28;20484;-72
2022/10/14 02:12:39;;;;;;;10.25;6.20;;;13.60;99.90;;;;;;5015708;28;20021;-73
2022/10/14 02:15:26;;;;;;;9.30;6.00;;;13.60;99.90;;;;;;5016243;28;20116;-73
2022/10/14 02:18:02;;;;;;;11.70;6.65;;;13.60;99.90;;;;;;5015678;28;20063;-71
2022/10/14 02:20:36;;;;;;;11.50;6.22;;;13.60;99.90;;;;;;5016646;28;20025;-71
2022/10/14 02:23:07;;;;;;;14.20;6.22;;;13.50;99.90;;;;;;5033726;28;20033;-71
2022/10/14 02:25:36;;;;;;;12.18;7.40;;;13.40;99.90;;;;;;5015715;28;20512;-73
2022/10/14 02:28:06;;;;;;;10.05;5.93;;;13.50;99.90;;;;;;5033121;28;20082;-73
2022/10/14 02:30:34;;;;;;;10.05;6.43;;;13.40;99.90;;;;;;5033472;28;20048;-73
2022/10/14 02:33:08;;;;;;;13.68;7.85;;;13.50;99.90;;;;;;5015793;28;20026;-73
2022/10/14 02:35:35;;;;;;;9.73;5.78;;;13.60;99.90;;;;;;5033220;28;20147;-73
2022/10/14 02:38:01;;;;;;;15.65;6.15;;;13.60;99.90;;;;;;5033070;28;20021;-73
2022/10/14 02:40:41;;;;;;;9.32;5.38;;;13.70;99.90;;;;;;5015415;28;20027;-74
2022/10/14 02:43:09;;;;;;;16.13;5.85;;;13.80;99.90;;;;;;5033154;28;20030;-73
2022/10/14 02:45:38;;;;;;;16.95;6.13;;;13.80;99.90;;;;;;5033105;28;20029;-73
2022/10/14 02:48:05;;;;;;;14.45;6.53;;;13.80;99.90;;;;;;5015179;28;20045;-73
2022/10/14 02:50:31;;;;;;;14.35;7.47;;;13.70;99.90;;;;;;5015271;28;20116;-73
2022/10/14 02:52:56;;;;;;;14.65;6.88;;;13.70;99.90;;;;;;5015692;28;20056;-73
2022/10/14 02:55:22;;;;;;;14.93;8.13;;;13.70;99.90;;;;;;5015460;28;20548;-75
2022/10/14 02:57:47;;;;;;;15.35;9.15;;;13.70;99.90;;;;;;5015252;28;20056;-74
2022/10/14 03:00:13;;;;;;;18.40;9.20;;;13.70;99.90;;;;;;5015276;28;20021;-75
2022/10/14 03:02:39;;;;;;;20.58;9.77;;;13.60;99.90;;;;;;5016138;28;20030;-74
2022/10/14 03:05:05;;;;;;;17.60;9.30;;;13.60;99.90;;;;;;5015167;28;20480;-74
2022/10/14 03:07:30;;;;;;;26.08;10.80;;;13.50;99.90;;;;;;5032808;28;20125;-73
2022/10/14 03:09:57;;;;;;;25.83;10.95;;;13.50;99.90;;;;;;5015536;28;20048;-73
2022/10/14 03:12:23;;;;;;;31.05;11.95;;;13.50;99.90;;;;;;5014932;28;20089;-73
2022/10/14 03:14:48;;;;;;;30.13;12.13;;;13.40;99.90;;;;;;5033061;28;20026;-73
2022/10/14 03:17:14;;;;;;;28.77;13.70;;;13.40;99.90;;;;;;5015103;28;20071;-73
2022/10/14 03:19:40;;;;;;;32.80;12.65;;;13.40;99.90;;;;;;5014998;28;20025;-73
2022/10/14 03:22:05;;;;;;;26.88;13.85;;;13.50;99.90;;;;;;5032706;28;20421;-73
2022/10/14 03:24:31;;;;;;;26.02;13.88;;;13.40;99.90;;;;;;5015535;28;20496;-73
2022/10/14 03:26:56;;;;;;;29.52;12.07;;;13.40;99.90;;;;;;5019787;28;20372;-73
2022/10/14 03:29:22;;;;;;;31.35;12.82;;;13.40;99.90;;;;;;5018856;28;20132;-73
2022/10/14 03:31:48;;;;;;;29.75;13.63;;;13.50;99.90;;;;;;5018585;28;20028;-74
2022/10/14 03:34:13;;;;;;;32.30;13.32;;;13.50;99.90;;;;;;5018833;28;20018;-73
2022/10/14 03:36:38;;;;;;;36.00;15.80;;;13.50;99.90;;;;;;5018537;28;20021;-73
2022/10/14 03:39:04;;;;;;;32.63;14.15;;;13.50;99.90;;;;;;5018709;28;20017;-73
2022/10/14 03:41:30;;;;;;;29.48;13.85;;;13.60;99.90;;;;;;5036126;28;20075;-73
2022/10/14 03:43:55;;;;;;;32.25;15.07;;;13.60;99.90;;;;;;5036408;28;20025;-73
2022/10/14 03:46:21;;;;;;;34.60;16.42;;;13.60;99.90;;;;;;5018346;28;20032;-73
2022/10/14 03:48:46;;;;;;;35.40;15.18;;;13.60;99.90;;;;;;5018178;28;20040;-73
2022/10/14 03:51:12;;;;;;;39.33;16.38;;;13.60;99.90;;;;;;5018089;28;20026;-73
2022/10/14 03:53:37;;;;;;;34.20;16.10;;;13.60;99.90;;;;;;5036127;28;20028;-73
2022/10/14 03:56:03;;;;;;;34.15;15.90;;;13.50;99.90;;;;;;5019091;28;20017;-73
2022/10/14 03:58:29;;;;;;;36.85;16.08;;;13.50;99.90;;;;;;5018013;28;20018;-73
2022/10/14 04:00:54;;;;;;;35.15;16.42;;;13.50;99.90;;;;;;5018076;28;20029;-73
2022/10/14 04:03:20;;;;;;;37.35;16.92;;;13.50;99.90;;;;;;5017931;28;20083;-73
2022/10/14 04:05:45;;;;;;;39.70;17.67;;;13.60;99.90;;;;;;5017930;28;20032;-73
2022/10/14 04:08:11;;;;;;;37.42;16.58;;;13.70;99.90;;;;;;5017939;28;20029;-73
2022/10/14 04:10:36;;;;;;;35.40;16.58;;;13.70;99.90;;;;;;5035482;28;20033;-73
2022/10/14 04:13:02;;;;;;;40.58;17.05;;;13.70;99.90;;;;;;5017842;28;20021;-73
2022/10/14 04:15:27;;;;;;;40.08;16.98;;;13.70;99.90;;;;;;5035413;28;20104;-73
2022/10/14 04:17:53;;;;;;;31.10;15.60;;;13.70;99.90;;;;;;5017639;28;20018;-74
2022/10/14 04:20:18;;;;;;;35.80;16.00;;;13.80;99.90;;;;;;5017713;28;20022;-73
2022/10/14 04:22:44;;;;;;;36.90;16.13;;;13.80;99.90;;;;;;5017551;28;20030;-73
2022/10/14 04:25:10;;;;;;;40.10;17.10;;;13.80;99.90;;;;;;5018712;28;20022;-73
2022/10/14 04:27:35;;;;;;;37.60;17.70;;;13.80;99.90;;;;;;5017728;28;20021;-73
2022/10/14 04:30:01;;;;;;;33.70;16.13;;;13.70;99.90;;;;;;5017571;28;20017;-73
2022/10/14 04:32:26;;;;;;;39.97;17.23;;;13.70;99.90;;;;;;5018120;28;20432;-73
2022/10/14 04:34:53;;;;;;;38.83;17.35;;;13.70;99.90;;;;;;5018291;28;20021;-73
2022/10/14 04:37:19;;;;;;;43.65;18.23;;;13.70;99.90;;;;;;5017124;28;20026;-73
2022/10/14 04:39:44;;;;;;;38.28;16.35;;;13.60;99.90;;;;;;5017117;28;20024;-73
2022/10/14 04:42:10;;;;;;;31.90;15.95;;;13.60;99.90;;;;;;5017603;28;20158;-74
2022/10/14 04:44:35;;;;;;;33.90;15.15;;;13.70;99.90;;;;;;5035234;28;20025;-73
2022/10/14 04:47:01;;;;;;;32.00;15.32;;;13.70;99.90;;;;;;5034994;28;20105;-73
2022/10/14 04:49:27;;;;;;;35.28;16.67;;;13.60;99.90;;;;;;5016893;28;20038;-73
2022/10/14 04:51:52;;;;;;;27.73;14.52;;;13.60;99.90;;;;;;5016958;28;20021;-74
2022/10/14 04:54:18;;;;;;;35.28;14.50;;;13.60;99.90;;;;;;5035254;28;20100;-73
2022/10/14 04:56:43;;;;;;;30.98;14.68;;;13.60;99.90;;;;;;5017366;28;20024;-71
2022/10/14 04:59:10;;;;;;;38.40;15.73;;;13.60;99.90;;;;;;5034797;28;20014;-71
2022/10/14 05:01:35;;;;;;;29.20;15.23;;;13.70;99.90;;;;;;5034875;28;20021;-71
2022/10/14 05:04:01;;;;;;;29.17;14.38;;;13.70;99.90;;;;;;5017717;28;20032;-71
2022/10/14 05:06:26;;;;;;;31.73;14.75;;;13.70;99.90;;;;;;5016940;28;20045;-71
2022/10/14 05:08:52;;;;;;;30.73;14.40;;;13.70;99.90;;;;;;5034817;28;20096;-71
2022/10/14 05:11:17;;;;;;;28.35;13.00;;;13.70;99.90;;;;;;5034285;28;20026;-71
2022/10/14 05:13:43;;;;;;;28.77;14.70;;;13.70;99.90;;;;;;5034634;28;20022;-71
2022/10/14 05:16:08;;;;;;;29.48;14.02;;;13.70;99.90;;;;;;5034342;28;20108;-71
2022/10/14 05:18:34;;;;;;;24.67;12.77;;;13.70;99.90;;;;;;5016807;28;20029;-71
2022/10/14 05:21:00;;;;;;;27.60;13.32;;;13.80;99.90;;;;;;5017527;28;20022;-71
2022/10/14 05:23:26;;;;;;;23.20;12.60;;;13.80;99.90;;;;;;5016550;28;20021;-71
2022/10/14 05:25:51;;;;;;;27.67;13.52;;;13.80;99.90;;;;;;5016523;28;20026;-72
2022/10/14 05:28:17;;;;;;;30.77;13.65;;;13.80;99.90;;;;;;5016446;28;20022;-72
2022/10/14 05:30:43;;;;;;;23.42;12.98;;;13.80;99.90;;;;;;5033936;28;20475;-72
2022/10/14 05:33:09;;;;;;;26.35;13.77;;;13.80;99.90;;;;;;5034256;28;20048;-72
2022/10/14 05:35:35;;;;;;;27.65;13.43;;;13.80;99.90;;;;;;5017053;28;20025;-72
2022/10/14 05:38:01;;;;;;;28.90;13.75;;;13.70;99.90;;;;;;5016196;28;20075;-72
2022/10/14 05:40:27;;;;;;;23.65;13.13;;;13.70;99.90;;;;;;5033883;28;20397;-72
2022/10/14 05:42:52;;;;;;;23.38;12.13;;;13.80;99.90;;;;;;5016880;28;20061;-71
2022/10/14 05:45:18;;;;;;;24.45;12.43;;;13.90;99.90;;;;;;5016459;28;20060;-71
2022/10/14 05:47:44;;;;;;;26.48;12.75;;;13.90;99.90;;;;;;5015786;28;20032;-71
2022/10/14 05:50:10;;;;;;;25.05;12.02;;;13.90;99.90;;;;;;5033658;28;20029;-71
2022/10/14 05:52:36;;;;;;;26.23;13.90;;;13.90;99.90;;;;;;5016146;28;20105;-71
2022/10/14 05:55:02;;;;;;;26.50;11.77;;;13.90;99.90;;;;;;5016046;28;20061;-71
2022/10/14 05:57:27;;;;;;;26.63;12.82;;;13.90;99.90;;;;;;5015981;28;20029;-71
2022/10/14 05:59:53;;;;;;;24.30;12.60;;;13.80;99.90;;;;;;5015983;28;20018;-73
2022/10/14 06:02:19;;;;;;;25.10;13.60;;;13.80;99.90;;;;;;5015886;28;20064;-73
2022/10/14 06:04:44;;;;;;;26.77;13.73;;;13.80;99.90;;;;;;5033889;28;20036;-73
2022/10/14 06:07:10;;;;;;;25.10;12.48;;;13.70;99.90;;;;;;5033946;28;20108;-71
2022/10/14 06:09:37;;;;;;;26.38;12.55;;;13.70;99.90;;;;;;5015739;28;20025;-71
2022/10/14 06:12:03;;;;;;;23.17;12.10;;;13.70;99.90;;;;;;5015911;28;20480;-71
2022/10/14 06:14:28;;;;;;;27.15;13.80;;;13.70;99.90;;;;;;5033413;28;20033;-71
2022/10/14 06:16:54;;;;;;;28.33;12.63;;;13.60;99.90;;;;;;5015952;28;20072;-71
2022/10/14 06:19:20;;;;;;;26.80;13.57;;;13.60;99.90;;;;;;5033356;28;20108;-71
2022/10/14 06:21:45;;;;;;;23.92;12.35;;;13.60;99.90;;;;;;5015686;28;20028;-71
2022/10/14 06:24:11;;;;;;;29.25;12.40;;;13.50;99.90;;;;;;5016819;28;20452;-73
2022/10/14 06:26:37;;;;;;;22.65;11.82;;;13.50;99.90;;;;;;5015671;28;20116;-71
2022/10/14 06:29:03;;;;;;;24.92;12.18;;;13.50;99.90;;;;;;5033354;28;20072;-71
2022/10/14 06:34:50;;;;;;;28.25;11.30;;;13.60;99.90;;;;;;5033549;28;20029;-71
2022/10/14 06:37:16;;;;;;;28.40;13.10;;;13.50;99.90;;;;;;5016196;28;20021;-75
2022/10/14 06:39:43;;;;;;;24.17;12.15;;;13.60;99.90;;;;;;5015489;28;20026;-74
2022/10/14 06:42:09;;;;;;;25.40;12.27;;;13.60;99.90;;;;;;5016539;28;20026;-75
2022/10/14 06:44:35;;;;;;;22.48;10.45;;;13.60;99.90;;;;;;5015686;28;20104;-75
2022/10/14 06:47:00;;;;;;;23.73;11.52;;;13.60;99.90;;;;;;5016336;28;20022;-74
2022/10/14 06:49:26;;;;;;;23.15;11.13;;;13.60;99.90;;;;;;5033149;28;20033;-74
2022/10/14 06:51:51;;;;;;;25.02;12.52;;;13.60;99.90;;;;;;5033231;28;20037;-73
2022/10/14 06:54:17;;;;;;;23.23;11.57;;;13.70;99.90;;;;;;5015663;28;20069;-73
2022/10/14 06:56:42;;;;;;;25.05;11.95;;;13.70;99.90;;;;;;5033416;28;20048;-72
2022/10/14 06:59:08;;;;;;;21.70;10.57;;;13.70;99.90;;;;;;5015306;28;20029;-72
2022/10/14 07:01:33;;;;;;;21.98;10.85;;;13.70;99.90;;;;;;5036711;28;20033;-71
2022/10/14 07:03:59;;;;;;;24.30;12.00;;;13.70;99.90;;;;;;5037169;28;20029;-71
2022/10/14 07:06:24;;;;;;;20.70;11.90;;;13.60;99.90;;;;;;5019106;28;20025;-72
2022/10/14 07:08:50;;;;;;;21.90;10.93;;;13.70;99.90;;;;;;5036689;28;20425;-73
2022/10/14 07:11:15;;;;;;;25.15;11.23;;;13.70;99.90;;;;;;5019299;28;20032;-71
2022/10/14 07:13:41;;;;;;;22.73;11.35;;;13.80;99.90;;;;;;5019320;28;20032;-73
2022/10/14 07:16:06;;;;;;;20.20;11.07;;;13.80;99.90;;;;;;5020070;28;20022;-73
2022/10/14 07:18:32;;;;;;;24.85;11.00;;;13.80;99.90;;;;;;5036290;28;20017;-73
2022/10/14 07:21:02;;;;;;;23.05;10.80;;;13.80;99.90;;;;;;5035594;28;20029;-73
2022/10/14 07:23:28;;;;;;;26.55;11.48;;;13.80;99.90;;;;;;5017969;28;20083;-73
2022/10/14 07:25:58;;;;;;;24.48;11.90;;;13.80;99.90;;;;;;5018268;28;20025;-75
2022/10/14 07:28:24;;;;;;;21.63;11.90;;;13.80;99.90;;;;;;5035422;28;20026;-74
2022/10/14 07:31:07;;;;;;;26.27;11.90;;;13.80;99.90;;;;;;5035407;28;20033;-75
2022/10/14 07:33:34;;;;;;;26.05;12.18;;;13.80;99.90;;;;;;5019383;28;20029;-75
2022/10/14 07:36:12;;;;;;;30.35;12.90;;;13.80;99.90;;;;;;5018457;28;20028;-75
2022/10/14 07:38:38;;;;;;;23.52;11.63;;;13.90;99.90;;;;;;5019386;28;20026;-75
2022/10/14 07:41:18;;;;;;;27.70;13.02;;;14.00;99.90;;;;;;5019201;28;20026;-75
2022/10/14 07:43:50;;;;;;;22.40;11.63;;;13.90;99.90;;;;;;5018442;28;20036;-75
2022/10/14 07:46:17;;;;;;;;;;;13.90;99.90;;;;;;5019406;28;20035;-76
2022/10/14 07:48:43;;;;;;;26.88;12.55;;;13.90;99.90;;;;;;5018136;28;20364;-75
2022/10/14 07:51:09;;;;;;;20.73;12.05;;;13.90;99.90;;;;;;5018954;28;20080;-75
2022/10/14 07:53:35;;;;;;;23.63;10.43;;;13.90;99.90;;;;;;5035942;28;20415;-76
2022/10/14 07:56:01;;;;;;;24.25;11.77;;;13.90;99.90;;;;;;5018087;28;20205;-75
2022/10/14 07:58:29;;;;;;;22.50;12.30;;;14.00;99.90;;;;;;5018102;28;20028;-75
2022/10/14 08:00:54;;;;;;;16.50;9.70;;;14.00;99.90;;;;;;5018528;28;20022;-75
2022/10/14 08:03:22;;;;;;;16.15;9.73;;;14.00;99.90;;;;;;5018123;28;20087;-74
2022/10/14 08:06:08;;;;;;;19.17;10.50;;;14.10;99.90;;;;;;5018732;28;20041;-74
2022/10/14 08:11:27;;;;;;;23.58;11.73;;;14.00;99.90;;;;;;5053901;23;20045;-75
2022/10/14 08:13:53;;;;;;;20.38;11.90;;;14.00;99.90;;;;;;5038449;28;20060;-75
2022/10/14 08:16:24;;;;;;;21.92;11.80;;;14.10;99.90;;;;;;5055384;28;20021;-75
2022/10/14 08:18:51;;;;;;;21.63;11.50;;;14.10;99.90;;;;;;5055429;28;20411;-75
2022/10/14 08:21:18;;;;;;;20.35;11.13;;;14.20;99.90;;;;;;5055482;28;20025;-75
2022/10/14 08:23:44;;;;;;;19.42;10.57;;;14.20;99.90;;;;;;5055347;28;20039;-74
2022/10/14 08:26:33;;;;;;;18.63;11.75;;;14.30;99.90;;;;;;5037317;28;20111;-75
2022/10/14 08:29:01;;;;;;;18.95;11.25;;;14.40;99.90;;;;;;5055216;28;20032;-75
2022/10/14 08:31:27;;;;;;;21.13;11.73;;;14.40;99.90;;;;;;5037288;28;20029;-74
2022/10/14 08:33:53;;;;;;;22.77;12.32;;;14.40;99.90;;;;;;5037156;28;20426;-75
2022/10/14 08:36:20;;;;;;;26.35;13.75;;;14.40;99.90;;;;;;5037508;28;20033;-75
2022/10/14 08:38:46;;;;;;;28.00;13.52;;;14.40;99.90;;;;;;5054898;28;20029;-75
2022/10/14 08:41:12;;;;;;;26.80;12.77;;;14.30;99.90;;;;;;5054968;28;20024;-75
2022/10/14 08:43:49;;;;;;;32.15;14.32;;;14.40;99.90;;;;;;5037102;28;20032;-75
2022/10/14 08:46:28;;;;;;;29.85;13.75;;;14.50;99.90;;;;;;5055145;28;20018;-75
2022/10/14 08:49:21;;;;;;;30.42;15.75;;;14.40;99.90;;;;;;5036866;28;20032;-75
2022/10/14 08:51:59;;;;;;;42.88;17.30;;;14.40;99.90;;;;;;5037851;28;20025;-75
2022/10/14 08:54:40;;;;;;;31.65;15.75;;;14.30;99.90;;;;;;5036937;28;20029;-75
2022/10/14 08:57:12;;;;;;;34.10;16.77;;;14.20;99.90;;;;;;5054704;28;20024;-75
2022/10/14 08:59:41;;;;;;;35.33;16.83;;;14.30;99.90;;;;;;5037170;28;20028;-75
2022/10/14 09:02:32;;;;;;;38.90;16.77;;;14.30;99.90;;;;;;5060420;23;20042;-76
2022/10/14 09:04:59;;;;;;;32.17;16.08;;;14.30;99.90;;;;;;4997227;28;20033;-76
2022/10/14 09:07:25;;;;;;;35.75;18.52;;;14.20;99.90;;;;;;5015317;28;20034;-76
2022/10/14 09:09:55;;;;;;;40.95;18.80;;;14.20;99.90;;;;;;5015299;28;20032;-74
2022/10/14 09:12:25;;;;;;;35.83;17.35;;;14.20;99.90;;;;;;4997046;28;20081;-73
2022/10/14 09:15:01;;;;;;;36.95;17.70;;;14.10;99.90;;;;;;4997269;28;20049;-75
2022/10/14 09:17:38;;;;;;;42.35;20.17;;;14.20;99.90;;;;;;5015058;28;20057;-75
2022/10/14 09:20:07;;;;;;;40.47;18.60;;;14.20;99.90;;;;;;4998129;28;20029;-75
2022/10/14 09:22:33;;;;;;;39.40;18.33;;;14.20;99.90;;;;;;4996992;28;20036;-76
2022/10/14 09:25:00;;;;;;;42.55;19.20;;;14.20;99.90;;;;;;5014455;28;20026;-75
2022/10/14 09:27:28;;;;;;;43.03;18.83;;;14.20;99.90;;;;;;4996863;28;20076;-76
2022/10/14 09:29:58;;;;;;;42.47;19.45;;;14.20;99.90;;;;;;5014402;28;20033;-75
2022/10/14 09:32:36;;;;;;;41.20;20.17;;;14.20;99.90;;;;;;4996647;28;20045;-75
2022/10/14 09:35:03;;;;;;;50.50;22.02;;;14.10;99.90;;;;;;5014448;28;20033;-75
2022/10/14 09:37:34;;;;;;;43.38;20.33;;;14.00;99.90;;;;;;5014504;28;20018;-75
2022/10/14 09:40:06;;;;;;;42.72;20.40;;;14.00;99.90;;;;;;4996718;28;20485;-75
2022/10/14 09:42:54;;;;;;;37.70;19.48;;;14.10;99.90;;;;;;4996857;28;20037;-75
2022/10/14 09:45:22;;;;;;;38.17;18.42;;;14.10;99.90;;;;;;4996613;28;20041;-75
2022/10/14 09:47:58;;;;;;;42.95;19.77;;;14.10;99.90;;;;;;4998396;28;20079;-75
2022/10/14 09:50:48;;;;;;;38.90;19.30;;;14.20;99.90;;;;;;5014607;28;20072;-75
2022/10/14 09:53:26;;;;;;;38.55;17.77;;;14.20;99.90;;;;;;5005456;28;20095;-76
2022/10/14 09:55:55;;;;;;;34.47;17.02;;;14.30;99.90;;;;;;4997330;28;20033;-76
2022/10/14 09:58:36;;;;;;;34.38;16.67;;;14.30;99.90;;;;;;5014148;28;20116;-76
2022/10/14 10:01:03;;;;;;;30.15;15.43;;;14.40;99.90;;;;;;4996404;28;20112;-76
2022/10/14 10:03:31;;;;;;;36.92;16.63;;;14.40;99.90;;;;;;5014871;28;20045;-76
2022/10/14 10:06:04;;;;;;;28.55;14.90;;;14.50;99.90;;;;;;4996834;28;20153;-75
2022/10/14 10:08:30;;;;;;;24.13;13.23;;;14.50;99.90;;;;;;4997022;28;20029;-76
2022/10/14 10:10:59;;;;;;;26.08;15.20;;;14.60;99.90;;;;;;4996091;28;20030;-76
2022/10/14 10:13:43;;;;;;;24.10;13.85;;;14.70;99.90;;;;;;4996401;28;20022;-75
2022/10/14 10:16:33;;;;;;;25.45;13.38;;;14.70;99.90;;;;;;5013779;28;20022;-75
2022/10/14 10:19:30;;;;;;;25.58;13.50;;;14.60;99.90;;;;;;5013757;28;20047;-75
2022/10/14 10:22:20;;;;;;;24.00;13.30;;;14.70;99.90;;;;;;5013839;28;20116;-75
2022/10/14 10:24:46;;;;;;;29.60;13.88;;;14.80;99.90;;;;;;5014056;28;20053;-76
2022/10/14 10:27:20;;;;;;;21.55;12.90;;;14.80;99.90;;;;;;5013837;28;20390;-76
2022/10/14 10:29:46;;;;;;;22.42;12.45;;;14.80;99.90;;;;;;4996007;28;20026;-76
2022/10/14 10:32:34;;;;;;;19.45;11.05;;;14.80;99.90;;;;;;5013401;28;20034;-76
2022/10/14 10:35:14;;;;;;;22.33;11.45;;;14.90;99.90;;;;;;4997283;28;20080;-76
2022/10/14 10:38:15;;;;;;;22.20;12.10;;;14.80;99.90;;;;;;5000004;28;20092;-75
2022/10/14 10:41:08;;;;;;;19.98;12.25;;;14.80;99.90;;;;;;4999327;28;20125;-75
2022/10/14 10:44:00;;;;;;;26.20;12.35;;;14.90;99.90;;;;;;4999720;28;20393;-76
2022/10/14 10:46:59;;;;;;;21.10;11.98;;;14.80;99.90;;;;;;5017459;28;20026;-75
2022/10/14 10:49:52;;;;;;;25.67;13.50;;;14.90;99.90;;;;;;5000803;28;20095;-75
2022/10/14 10:53:07;;;;;;;24.52;12.15;;;14.90;99.90;;;;;;5000420;28;20037;-74
2022/10/14 10:55:55;;;;;;;20.35;11.80;;;14.80;99.90;;;;;;4994453;28;20072;-74
2022/10/14 10:58:40;;;;;;;23.33;12.20;;;14.80;99.90;;;;;;5017304;28;20493;-75
2022/10/14 11:01:08;;;;;;;22.38;12.15;;;14.90;99.90;;;;;;5017248;28;20037;-75
2022/10/14 11:03:55;;;;;;;22.95;10.63;;;15.00;99.90;;;;;;4999921;28;20132;-76
2022/10/14 11:13:14;;;;;;;15.98;9.63;;;15.20;99.90;;;;;;5017056;28;20029;-74
2022/10/14 11:16:08;;;;;;;19.38;8.77;;;15.20;99.90;;;;;;4999217;28;20029;-74
2022/10/14 11:18:46;;;;;;;17.77;9.75;;;15.30;99.90;;;;;;5017097;28;20042;-74
2022/10/14 11:21:34;;;;;;;19.42;9.80;;;15.30;99.90;;;;;;4999204;28;20025;-74
2022/10/14 11:24:12;;;;;;;15.40;8.73;;;15.30;99.90;;;;;;5017038;28;20500;-74
2022/10/14 11:26:56;;;;;;;16.23;10.10;;;15.20;99.90;;;;;;5016737;28;20022;-74
2022/10/14 11:29:30;;;;;;;22.05;10.98;;;15.30;99.90;;;;;;4999945;28;20053;-74
2022/10/14 11:32:20;;;;;;;19.17;9.88;;;15.30;99.90;;;;;;5016391;28;20030;-75
2022/10/14 11:35:00;;;;;;;22.10;9.25;;;15.40;99.90;;;;;;4971535;28;20026;-75
2022/10/14 11:37:49;;;;;;;16.10;9.60;;;15.40;99.90;;;;;;4998853;28;20018;-75
2022/10/14 11:40:25;;;;;;;21.10;9.68;;;15.50;99.90;;;;;;5016526;28;20528;-75
2022/10/14 11:43:06;;;;;;;18.73;9.40;;;15.50;99.90;;;;;;4999233;28;20103;-74
2022/10/14 11:45:53;;;;;;;18.38;9.48;;;15.60;99.90;;;;;;4998514;28;20022;-74
2022/10/14 11:48:26;;;;;;;19.17;10.00;;;15.60;99.90;;;;;;4998598;28;20030;-74
2022/10/14 11:51:43;;;;;;;17.13;10.10;;;15.60;99.90;;;;;;5016212;28;20026;-74
2022/10/14 11:54:37;;;;;;;17.92;10.15;;;15.70;99.90;;;;;;5000703;28;20064;-74
2022/10/14 11:57:23;;;;;;;18.02;9.95;;;15.70;99.90;;;;;;4991321;28;20083;-75
2022/10/14 11:59:58;;;;;;;18.75;10.35;;;15.70;99.90;;;;;;5016484;28;20053;-76
2022/10/14 12:02:54;;;;;;;22.42;11.13;;;15.70;99.90;;;;;;4998514;28;20124;-75
2022/10/14 12:05:20;;;;;;;20.48;10.90;;;15.70;99.90;;;;;;4998372;28;20022;-76
2022/10/14 12:08:24;;;;;;;20.02;11.07;;;15.60;99.90;;;;;;4999257;28;20077;-76
2022/10/14 12:11:09;;;;;;;20.85;10.95;;;15.60;99.90;;;;;;4998254;28;20033;-76
2022/10/14 12:13:42;;;;;;;20.13;10.50;;;15.60;99.90;;;;;;5016024;28;20505;-75
2022/10/14 12:16:19;;;;;;;19.00;11.13;;;15.70;99.90;;;;;;4998102;28;20108;-75
2022/10/14 12:18:48;;;;;;;22.15;11.45;;;15.70;99.90;;;;;;4998169;28;20029;-76
2022/10/14 12:21:17;;;;;;;19.92;11.93;;;15.60;99.90;;;;;;4999080;28;20026;-74
2022/10/14 12:23:52;;;;;;;23.88;11.38;;;15.60;99.90;;;;;;5015940;28;20030;-75
2022/10/14 12:26:21;;;;;;;18.10;10.25;;;15.50;99.90;;;;;;5015569;28;20044;-75
2022/10/14 12:28:58;;;;;;;18.58;10.07;;;15.50;99.90;;;;;;5015808;28;20034;-75
2022/10/14 12:31:27;;;;;;;21.77;11.05;;;15.60;99.90;;;;;;4997820;28;20029;-74
2022/10/14 12:34:13;;;;;;;13.60;9.65;;;15.60;99.90;;;;;;5015461;28;20020;-75
2022/10/14 12:36:41;;;;;;;15.88;9.00;;;15.60;99.90;;;;;;4998341;28;20022;-75
2022/10/14 12:39:16;;;;;;;19.63;9.68;;;15.60;99.90;;;;;;4997847;28;20024;-75
2022/10/14 12:41:50;;;;;;;13.68;8.88;;;15.70;99.90;;;;;;4997710;28;20021;-75
2022/10/14 12:44:18;;;;;;;15.82;8.75;;;15.70;99.90;;;;;;4998721;28;20028;-75
2022/10/14 12:46:45;;;;;;;17.38;9.20;;;15.70;99.90;;;;;;5015130;28;20022;-75
2022/10/14 12:49:30;;;;;;;16.08;9.32;;;15.70;99.90;;;;;;4997540;28;20029;-75
2022/10/14 12:52:00;;;;;;;15.18;9.10;;;15.70;99.90;;;;;;5014973;28;20030;-75
2022/10/14 12:54:26;;;;;;;23.15;9.75;;;15.70;99.90;;;;;;4997442;28;20113;-75
2022/10/14 12:57:25;;;;;;;12.57;8.77;;;15.70;99.90;;;;;;5014563;28;20022;-75
2022/10/14 12:59:52;;;;;;;21.50;9.18;;;15.70;99.90;;;;;;5014596;28;20022;-76
2022/10/14 13:02:36;;;;;;;12.88;8.07;;;15.70;99.90;;;;;;4997192;28;20034;-75
2022/10/14 13:05:07;;;;;;;17.98;8.75;;;15.70;99.90;;;;;;4997279;28;20080;-75
2022/10/14 13:07:41;;;;;;;14.45;7.95;;;15.70;99.90;;;;;;4997363;28;20084;-75